Time;durP1;ratioP1;P1;durP2;ratioP2;P2;SDS_P1;SDS_P2;PMS_P1;PMS_P2;Temp;Humidity;BMP_temperature;BMP_pressure;BME280_temperature;BME280_humidity;BME280_pressure;Samples;Min_cycle;Max_cycle;Signal;HPM_P1;HPM_P2
2023/05/04 00:01:09;;;;;;;20.50;7.80;;;6.30;99.90;;;;;;5063972;28;20037;-62
2023/05/04 00:03:38;;;;;;;10.68;6.45;;;6.30;99.90;;;;;;5063699;28;20067;-58
2023/05/04 00:06:04;;;;;;;9.30;6.20;;;6.20;99.90;;;;;;5062434;28;20135;-56
2023/05/04 00:08:30;;;;;;;12.00;6.60;;;6.20;99.90;;;;;;5062911;28;20119;-57
2023/05/04 00:10:56;;;;;;;12.27;6.65;;;6.40;99.90;;;;;;5063448;28;20056;-57
2023/05/04 00:13:21;;;;;;;12.55;7.10;;;6.20;99.90;;;;;;5062459;28;20467;-57
2023/05/04 00:15:47;;;;;;;12.07;7.03;;;6.20;99.90;;;;;;5063095;28;20544;-56
2023/05/04 00:18:13;;;;;;;11.13;7.13;;;6.20;99.90;;;;;;5063433;28;20067;-58
2023/05/04 00:20:38;;;;;;;14.10;7.05;;;6.20;99.90;;;;;;5061651;28;20119;-59
2023/05/04 00:23:04;;;;;;;11.02;6.82;;;6.20;99.90;;;;;;5061770;28;20048;-57
2023/05/04 00:25:30;;;;;;;11.55;6.90;;;6.10;99.90;;;;;;5061780;28;20094;-59
2023/05/04 00:27:56;;;;;;;11.80;7.20;;;6.10;99.90;;;;;;5062508;28;20445;-53
2023/05/04 00:30:22;;;;;;;12.13;7.57;;;6.10;99.90;;;;;;5062526;28;20098;-57
2023/05/04 00:32:47;;;;;;;13.27;6.85;;;6.00;99.90;;;;;;5063193;28;20546;-58
2023/05/04 00:35:13;;;;;;;12.13;6.53;;;6.20;99.90;;;;;;5063162;28;20029;-57
2023/05/04 00:37:38;;;;;;;9.68;6.95;;;6.10;99.90;;;;;;5062618;28;20040;-61
2023/05/04 00:40:05;;;;;;;11.75;7.32;;;5.90;99.90;;;;;;5062642;28;20491;-60
2023/05/04 00:42:30;;;;;;;9.57;6.38;;;5.90;99.90;;;;;;5062117;28;20488;-58
2023/05/04 00:44:56;;;;;;;9.25;6.95;;;5.80;99.90;;;;;;5062551;28;20124;-59
2023/05/04 00:47:22;;;;;;;10.10;6.85;;;5.70;99.90;;;;;;5062037;28;20037;-55
2023/05/04 00:49:48;;;;;;;13.75;7.35;;;5.70;99.90;;;;;;5063060;28;20376;-57
2023/05/04 00:52:15;;;;;;;13.35;7.35;;;5.70;99.90;;;;;;5062575;28;20036;-58
2023/05/04 00:54:43;;;;;;;13.80;7.22;;;5.60;99.90;;;;;;5062463;28;20076;-56
2023/05/04 00:57:09;;;;;;;12.02;6.82;;;5.60;99.90;;;;;;5062772;28;20503;-57
2023/05/04 00:59:34;;;;;;;10.65;6.47;;;5.60;99.90;;;;;;5062057;28;20035;-60
2023/05/04 01:02:00;;;;;;;13.45;7.50;;;5.60;99.90;;;;;;5062495;28;20049;-57
2023/05/04 01:04:26;;;;;;;14.10;7.53;;;5.70;99.90;;;;;;5061818;28;20411;-60
2023/05/04 01:07:34;;;;;;;9.98;6.75;;;5.50;99.90;;;;;;5062368;28;20036;-58
2023/05/04 01:10:07;;;;;;;16.23;8.20;;;5.50;99.90;;;;;;5040326;28;20052;-55
2023/05/04 01:12:40;;;;;;;14.70;8.52;;;5.50;99.90;;;;;;5061622;28;20095;-61
2023/05/04 01:15:11;;;;;;;13.00;7.38;;;5.40;99.90;;;;;;5062253;28;20050;-56
2023/05/04 01:17:37;;;;;;;13.02;7.45;;;5.40;99.90;;;;;;5061978;28;20229;-60
2023/05/04 01:20:03;;;;;;;13.50;7.63;;;5.40;99.90;;;;;;5060713;28;20134;-62
2023/05/04 01:22:28;;;;;;;13.32;7.50;;;5.40;99.90;;;;;;5059814;28;20044;-62
2023/05/04 01:24:54;;;;;;;14.75;7.75;;;5.40;99.90;;;;;;5061939;28;20041;-63
2023/05/04 01:27:39;;;;;;;12.32;7.75;;;5.40;99.90;;;;;;5061367;28;20422;-55
2023/05/04 01:30:13;;;;;;;11.35;7.90;;;5.50;99.90;;;;;;5061887;28;20407;-61
2023/05/04 01:32:41;;;;;;;14.48;8.48;;;5.50;99.90;;;;;;5061983;28;20098;-62
2023/05/04 01:35:10;;;;;;;12.65;7.97;;;5.80;99.90;;;;;;5061499;28;20106;-59
2023/05/04 01:37:36;;;;;;;12.10;7.93;;;5.60;99.90;;;;;;5062144;28;20051;-62
2023/05/04 01:40:03;;;;;;;14.60;8.55;;;5.40;99.90;;;;;;5061866;28;20127;-61
2023/05/04 01:42:28;;;;;;;15.40;8.25;;;5.40;99.90;;;;;;5060424;28;20053;-62
2023/05/04 01:44:55;;;;;;;12.25;7.82;;;5.40;99.90;;;;;;5061948;28;20033;-52
2023/05/04 01:47:20;;;;;;;14.38;8.27;;;5.40;99.90;;;;;;5060569;28;20074;-63
2023/05/04 01:49:46;;;;;;;12.90;7.90;;;5.40;99.90;;;;;;5061704;28;20052;-62
2023/05/04 01:52:12;;;;;;;12.27;8.20;;;5.40;99.90;;;;;;5061519;28;20090;-63
2023/05/04 01:54:37;;;;;;;13.40;8.20;;;5.40;99.90;;;;;;5061500;28;20051;-59
2023/05/04 01:57:03;;;;;;;15.95;8.88;;;5.30;99.90;;;;;;5061493;28;20487;-63
2023/05/04 01:59:29;;;;;;;15.63;9.45;;;5.30;99.90;;;;;;5060294;28;20064;-62
2023/05/04 02:01:54;;;;;;;15.55;8.40;;;5.30;99.90;;;;;;5061298;28;20055;-60
2023/05/04 02:04:20;;;;;;;14.98;8.88;;;5.30;99.90;;;;;;5061630;28;20502;-55
2023/05/04 02:06:46;;;;;;;14.05;8.57;;;5.30;99.90;;;;;;5062066;28;20095;-61
2023/05/04 02:09:12;;;;;;;15.80;8.25;;;5.20;99.90;;;;;;5061633;28;20056;-56
2023/05/04 02:11:38;;;;;;;14.55;8.60;;;5.20;99.90;;;;;;5061385;28;20043;-57
2023/05/04 02:14:04;;;;;;;14.88;9.00;;;5.20;99.90;;;;;;5060633;28;20101;-60
2023/05/04 02:16:30;;;;;;;14.65;9.18;;;5.20;99.90;;;;;;5060671;28;20056;-59
2023/05/04 02:18:56;;;;;;;15.27;9.00;;;5.20;99.90;;;;;;5061819;28;20066;-56
2023/05/04 02:21:21;;;;;;;15.18;9.30;;;5.20;99.90;;;;;;5060136;28;20082;-57
2023/05/04 02:23:47;;;;;;;20.27;9.75;;;5.40;99.90;;;;;;5061133;28;20048;-56
2023/05/04 02:26:13;;;;;;;14.10;9.98;;;5.20;99.90;;;;;;5061462;28;20048;-59
2023/05/04 02:28:38;;;;;;;14.82;9.68;;;5.20;99.90;;;;;;5060625;28;20093;-56
2023/05/04 02:31:04;;;;;;;15.13;9.48;;;5.20;99.90;;;;;;5061420;28;20036;-60
2023/05/04 02:33:29;;;;;;;15.48;9.40;;;5.20;99.90;;;;;;5064694;28;20043;-54
2023/05/04 02:35:55;;;;;;;14.75;9.75;;;5.40;99.90;;;;;;5078470;28;20523;-50
2023/05/04 02:38:21;;;;;;;14.95;9.40;;;5.30;99.90;;;;;;5084058;28;20048;-61
2023/05/04 02:40:46;;;;;;;13.20;9.73;;;5.20;99.90;;;;;;5085742;28;20035;-60
2023/05/04 02:43:12;;;;;;;13.30;9.50;;;5.30;99.90;;;;;;5084530;28;20101;-62
2023/05/04 02:45:37;;;;;;;16.05;10.10;;;5.20;99.90;;;;;;5085058;28;20233;-59
2023/05/04 02:48:03;;;;;;;15.75;9.48;;;5.30;99.90;;;;;;5085060;28;20505;-63
2023/05/04 02:50:30;;;;;;;15.02;10.27;;;5.20;99.90;;;;;;5084619;28;20043;-62
2023/05/04 02:52:55;;;;;;;19.35;9.73;;;5.20;99.90;;;;;;5085401;28;20407;-63
2023/05/04 02:55:21;;;;;;;19.38;10.38;;;5.20;99.90;;;;;;5084902;28;20051;-62
2023/05/04 02:57:47;;;;;;;16.63;9.98;;;5.30;99.90;;;;;;5084102;28;20246;-58
2023/05/04 03:00:13;;;;;;;18.75;10.20;;;5.30;99.90;;;;;;5085416;28;20036;-59
2023/05/04 03:02:38;;;;;;;16.20;10.38;;;5.30;99.90;;;;;;5085193;28;20039;-62
2023/05/04 03:05:05;;;;;;;16.63;9.65;;;5.20;99.90;;;;;;5083420;28;20040;-63
2023/05/04 03:07:31;;;;;;;14.85;9.60;;;5.30;99.90;;;;;;5084246;28;20603;-61
2023/05/04 03:09:56;;;;;;;14.73;9.60;;;5.20;99.90;;;;;;5085011;28;20074;-62
2023/05/04 03:12:23;;;;;;;17.85;10.27;;;5.20;99.90;;;;;;5084025;28;20490;-60
2023/05/04 03:14:48;;;;;;;13.63;9.95;;;5.20;99.90;;;;;;5084293;28;20506;-59
2023/05/04 03:17:14;;;;;;;16.27;9.63;;;5.20;99.90;;;;;;5083550;28;20166;-57
2023/05/04 03:19:40;;;;;;;17.40;9.73;;;5.30;99.90;;;;;;5084751;28;20040;-63
2023/05/04 03:22:05;;;;;;;17.92;9.30;;;5.30;99.90;;;;;;5083612;28;20490;-59
2023/05/04 03:24:31;;;;;;;16.17;9.68;;;5.30;99.90;;;;;;5084081;28;20048;-61
2023/05/04 03:26:57;;;;;;;14.07;9.40;;;5.30;99.90;;;;;;5084016;28;20055;-54
2023/05/04 03:29:22;;;;;;;13.38;9.27;;;5.20;99.90;;;;;;5083507;28;20067;-62
2023/05/04 03:31:48;;;;;;;16.58;10.27;;;5.30;99.90;;;;;;5084399;28;20421;-62
2023/05/04 03:34:14;;;;;;;14.70;9.35;;;5.30;99.90;;;;;;5083032;28;20109;-62
2023/05/04 03:36:39;;;;;;;16.60;9.77;;;5.30;99.90;;;;;;5084158;28;20038;-51
2023/05/04 03:39:05;;;;;;;14.27;9.25;;;5.30;99.90;;;;;;5083951;28;20560;-62
2023/05/04 03:41:31;;;;;;;13.70;9.70;;;5.50;99.90;;;;;;5083600;28;20486;-61
2023/05/04 03:43:56;;;;;;;12.80;8.80;;;5.30;99.90;;;;;;5082053;28;20463;-56
2023/05/04 03:46:22;;;;;;;16.48;9.55;;;5.30;99.90;;;;;;5084061;28;20119;-57
2023/05/04 03:48:47;;;;;;;15.73;9.15;;;5.30;99.90;;;;;;5083831;28;20312;-62
2023/05/04 03:51:13;;;;;;;17.38;9.38;;;5.30;99.90;;;;;;5084021;28;20054;-57
2023/05/04 03:53:39;;;;;;;13.50;9.38;;;5.30;99.90;;;;;;5084224;28;20529;-61
2023/05/04 03:56:05;;;;;;;13.70;8.63;;;5.30;99.90;;;;;;5081924;28;20538;-62
2023/05/04 03:58:30;;;;;;;18.45;9.23;;;5.30;99.90;;;;;;5082665;28;20040;-59
2023/05/04 04:00:56;;;;;;;14.93;8.98;;;5.30;99.90;;;;;;5083836;28;20043;-62
2023/05/04 04:03:22;;;;;;;12.43;8.90;;;5.30;99.90;;;;;;5084151;28;20044;-60
2023/05/04 04:05:47;;;;;;;16.23;9.15;;;5.30;99.90;;;;;;5083106;28;20050;-63
2023/05/04 04:08:13;;;;;;;15.80;9.65;;;5.30;99.90;;;;;;5082592;28;20139;-58
2023/05/04 04:10:39;;;;;;;15.68;8.93;;;5.30;99.90;;;;;;5083662;28;20044;-53
2023/05/04 04:13:05;;;;;;;15.13;9.25;;;5.30;99.90;;;;;;5082938;28;20111;-63
2023/05/04 04:15:31;;;;;;;15.88;9.93;;;5.30;99.90;;;;;;5082636;28;20582;-62
2023/05/04 04:17:56;;;;;;;14.85;10.10;;;5.30;99.90;;;;;;5083419;28;20054;-61
2023/05/04 04:20:22;;;;;;;16.45;9.40;;;5.40;99.90;;;;;;5083929;28;20043;-62
2023/05/04 04:22:49;;;;;;;16.60;9.80;;;5.30;99.90;;;;;;5082522;28;20047;-59
2023/05/04 04:25:14;;;;;;;14.73;9.50;;;5.60;99.90;;;;;;5083380;28;20044;-61
2023/05/04 04:27:40;;;;;;;16.00;9.52;;;5.30;99.90;;;;;;5082420;28;20604;-58
2023/05/04 04:30:06;;;;;;;14.98;9.40;;;5.30;99.90;;;;;;5083230;28;20051;-61
2023/05/04 04:32:32;;;;;;;15.32;9.63;;;5.30;99.90;;;;;;5082768;28;20510;-63
2023/05/04 04:34:59;;;;;;;15.98;8.93;;;5.30;99.90;;;;;;5082957;28;20479;-61
2023/05/04 04:37:25;;;;;;;16.30;9.32;;;5.40;99.90;;;;;;5083127;28;20491;-54
2023/05/04 04:39:50;;;;;;;13.98;8.82;;;5.40;99.90;;;;;;5082610;28;20036;-62
2023/05/04 04:42:16;;;;;;;15.95;8.50;;;5.80;99.90;;;;;;5082726;28;20491;-60
2023/05/04 04:44:41;;;;;;;15.05;9.20;;;5.60;99.90;;;;;;5083290;28;20156;-60
2023/05/04 04:47:08;;;;;;;14.60;8.95;;;5.40;99.90;;;;;;5083157;28;20044;-62
2023/05/04 04:49:33;;;;;;;13.85;9.02;;;5.50;99.90;;;;;;5082555;28;20055;-58
2023/05/04 04:52:00;;;;;;;15.50;8.80;;;5.80;99.90;;;;;;5081506;28;20036;-60
2023/05/04 04:54:26;;;;;;;16.92;8.80;;;5.50;99.90;;;;;;5082781;28;20036;-58
2023/05/04 04:56:52;;;;;;;14.50;9.18;;;5.50;99.90;;;;;;5081665;28;20055;-58
2023/05/04 04:59:19;;;;;;;14.20;9.50;;;5.50;99.90;;;;;;5082484;28;20459;-60
2023/05/04 05:01:45;;;;;;;15.45;8.57;;;5.50;99.90;;;;;;5082866;28;20087;-59
2023/05/04 05:04:10;;;;;;;17.95;9.68;;;5.60;99.90;;;;;;5082193;28;20497;-56
2023/05/04 05:06:36;;;;;;;16.73;8.93;;;5.70;99.90;;;;;;5082660;28;20407;-57
2023/05/04 05:09:02;;;;;;;17.23;9.63;;;5.60;99.90;;;;;;5081092;28;20518;-60
2023/05/04 05:11:28;;;;;;;15.23;9.27;;;5.70;99.90;;;;;;5082729;28;20044;-58
2023/05/04 05:13:53;;;;;;;15.15;9.60;;;5.80;99.90;;;;;;5080166;28;20043;-58
2023/05/04 05:16:19;;;;;;;14.93;9.32;;;5.80;99.90;;;;;;5082741;28;20071;-58
2023/05/04 05:18:45;;;;;;;14.68;8.73;;;5.80;99.90;;;;;;5082436;28;20067;-60
2023/05/04 05:21:11;;;;;;;15.07;9.57;;;5.80;99.90;;;;;;5080649;28;20055;-59
2023/05/04 05:23:36;;;;;;;15.90;9.35;;;5.80;99.90;;;;;;5082142;28;20048;-56
2023/05/04 05:26:02;;;;;;;15.00;8.90;;;5.90;99.90;;;;;;5082153;28;20079;-56
2023/05/04 05:28:28;;;;;;;16.92;9.07;;;6.30;99.90;;;;;;5081920;28;20046;-56
2023/05/04 05:30:54;;;;;;;12.80;9.07;;;6.40;99.90;;;;;;5082350;28;20044;-56
2023/05/04 05:33:20;;;;;;;15.75;9.25;;;6.30;99.90;;;;;;5082060;28;20043;-59
2023/05/04 05:35:45;;;;;;;14.60;9.20;;;6.20;99.90;;;;;;5080782;28;20123;-58
2023/05/04 05:38:11;;;;;;;16.83;9.05;;;6.30;99.90;;;;;;5081032;28;20485;-57
2023/05/04 05:40:37;;;;;;;14.27;8.93;;;6.40;99.90;;;;;;5081901;28;20487;-58
2023/05/04 05:43:04;;;;;;;16.77;8.73;;;6.50;99.90;;;;;;5081538;28;20052;-55
2023/05/04 05:45:30;;;;;;;13.73;8.85;;;6.70;99.90;;;;;;5082162;28;20047;-57
2023/05/04 05:47:55;;;;;;;16.88;8.80;;;6.60;99.90;;;;;;5081819;28;20052;-55
2023/05/04 05:50:22;;;;;;;14.40;8.63;;;6.80;99.90;;;;;;5081687;28;20047;-57
2023/05/04 05:52:48;;;;;;;15.13;8.73;;;6.90;99.90;;;;;;5081598;28;20167;-57
2023/05/04 05:55:14;;;;;;;14.32;8.85;;;7.00;99.90;;;;;;5080825;28;20059;-56
2023/05/04 05:57:40;;;;;;;19.38;8.98;;;7.10;99.90;;;;;;5081144;28;20036;-58
2023/05/04 06:00:06;;;;;;;15.57;8.95;;;7.20;99.90;;;;;;5081806;28;20050;-55
2023/05/04 06:02:32;;;;;;;15.93;9.00;;;7.20;99.90;;;;;;5080043;28;20056;-59
2023/05/04 06:04:57;;;;;;;13.77;7.90;;;7.30;99.90;;;;;;5081959;28;20055;-57
2023/05/04 06:07:23;;;;;;;16.38;8.23;;;7.50;99.90;;;;;;5081452;28;20082;-58
2023/05/04 06:09:49;;;;;;;13.90;8.30;;;7.70;99.90;;;;;;5081615;28;20046;-56
2023/05/04 06:12:16;;;;;;;15.45;8.65;;;7.80;99.90;;;;;;5080562;28;20406;-58
2023/05/04 06:14:42;;;;;;;17.80;8.25;;;8.00;99.90;;;;;;5081702;28;20290;-58
2023/05/04 06:17:08;;;;;;;13.80;8.18;;;8.30;99.90;;;;;;5081812;28;20272;-58
2023/05/04 06:19:35;;;;;;;15.25;7.90;;;8.40;99.90;;;;;;5081018;28;20047;-61
2023/05/04 06:22:01;;;;;;;13.18;7.40;;;8.80;99.90;;;;;;5081595;28;20232;-63
2023/05/04 06:24:28;;;;;;;15.35;8.00;;;8.80;99.90;;;;;;5081915;28;20063;-61
2023/05/04 06:26:54;;;;;;;14.20;8.23;;;9.30;99.90;;;;;;5080846;28;20043;-61
2023/05/04 06:29:20;;;;;;;18.10;8.02;;;9.10;99.90;;;;;;5080890;28;20438;-62
2023/05/04 06:31:46;;;;;;;12.80;8.43;;;9.20;99.90;;;;;;5080118;28;20086;-61
2023/05/04 06:34:12;;;;;;;15.38;8.18;;;9.70;99.90;;;;;;5081417;28;20044;-62
2023/05/04 06:36:37;;;;;;;15.18;8.25;;;9.50;99.90;;;;;;5081036;28;20246;-62
2023/05/04 06:39:03;;;;;;;12.32;7.85;;;9.60;99.90;;;;;;5081105;28;20698;-58
2023/05/04 06:41:29;;;;;;;11.10;7.40;;;10.00;99.90;;;;;;5080939;28;20044;-61
2023/05/04 06:43:55;;;;;;;13.75;7.43;;;9.90;99.90;;;;;;5081295;28;20036;-62
2023/05/04 06:46:21;;;;;;;13.30;8.27;;;10.20;99.90;;;;;;5079919;28;20078;-60
2023/05/04 06:48:47;;;;;;;13.63;7.25;;;10.40;99.90;;;;;;5081324;28;20044;-64
2023/05/04 06:51:12;;;;;;;12.85;6.88;;;10.70;99.90;;;;;;5081159;28;20036;-62
2023/05/04 06:53:38;;;;;;;13.50;6.57;;;11.00;99.90;;;;;;5080657;28;20367;-63
2023/05/04 06:56:04;;;;;;;11.15;6.75;;;11.10;99.90;;;;;;5081185;28;20592;-63
2023/05/04 06:58:29;;;;;;;11.88;6.65;;;11.20;99.90;;;;;;5080832;28;20343;-63
2023/05/04 07:00:55;;;;;;;12.70;7.35;;;11.10;99.90;;;;;;5080864;28;20118;-63
2023/05/04 07:03:21;;;;;;;12.10;6.75;;;11.20;99.90;;;;;;5080899;28;20050;-63
2023/05/04 07:05:47;;;;;;;10.68;6.68;;;11.30;99.90;;;;;;5081191;28;20036;-62
2023/05/04 07:08:13;;;;;;;14.32;7.25;;;11.30;99.90;;;;;;5080672;28;20059;-61
2023/05/04 07:10:39;;;;;;;11.93;6.70;;;11.50;99.90;;;;;;5079112;28;20043;-61
2023/05/04 07:13:06;;;;;;;13.95;7.20;;;11.60;99.90;;;;;;5080580;28;20086;-61
2023/05/04 07:15:32;;;;;;;11.50;6.32;;;11.70;99.90;;;;;;5081116;28;20075;-60
2023/05/04 07:17:58;;;;;;;11.02;6.85;;;11.70;99.90;;;;;;5081540;28;20414;-63
2023/05/04 07:20:24;;;;;;;15.88;7.85;;;11.90;99.90;;;;;;5084678;28;20051;-63
2023/05/04 07:22:55;;;;;;;8.98;6.07;;;12.10;99.90;;;;;;5084341;28;20460;-63
2023/05/04 07:25:24;;;;;;;15.18;7.90;;;12.20;99.90;;;;;;5085058;28;20052;-59
2023/05/04 07:27:50;;;;;;;13.80;6.38;;;12.10;99.90;;;;;;5084379;28;20040;-57
2023/05/04 07:30:16;;;;;;;11.07;5.82;;;12.10;99.90;;;;;;5087341;28;20136;-59
2023/05/04 07:32:41;;;;;;;11.30;5.85;;;12.20;99.90;;;;;;5087248;28;20499;-59
2023/05/04 07:35:08;;;;;;;10.82;5.85;;;12.30;99.90;;;;;;5083908;28;20048;-55
2023/05/04 07:37:34;;;;;;;9.25;6.40;;;12.30;99.90;;;;;;5065834;28;20051;-56
2023/05/04 07:40:00;;;;;;;12.27;5.75;;;12.30;99.90;;;;;;5063094;28;20519;-57
2023/05/04 07:42:27;;;;;;;9.23;6.55;;;12.30;99.90;;;;;;5061543;28;20047;-57
2023/05/04 07:44:52;;;;;;;10.82;6.65;;;12.40;99.90;;;;;;5063802;28;20442;-50
2023/05/04 07:47:18;;;;;;;12.85;6.45;;;12.70;99.90;;;;;;5063966;28;20044;-54
2023/05/04 07:49:44;;;;;;;10.57;6.03;;;12.70;99.90;;;;;;5066012;28;20090;-58
2023/05/04 07:52:11;;;;;;;11.32;6.28;;;12.50;99.90;;;;;;5048276;28;20052;-59
2023/05/04 07:54:37;;;;;;;10.48;6.38;;;12.50;99.90;;;;;;5067253;28;20524;-59
2023/05/04 07:57:03;;;;;;;9.35;6.18;;;12.40;99.90;;;;;;5084170;28;20044;-55
2023/05/04 07:59:29;;;;;;;12.43;6.72;;;12.30;99.90;;;;;;5086712;28;20051;-55
2023/05/04 08:01:55;;;;;;;11.88;6.55;;;12.30;99.90;;;;;;5086346;28;20044;-58
2023/05/04 08:04:21;;;;;;;17.35;6.45;;;12.30;99.90;;;;;;5086843;28;20067;-60
2023/05/04 08:06:48;;;;;;;11.85;6.50;;;12.20;99.90;;;;;;5086785;28;20402;-57
2023/05/04 08:09:14;;;;;;;8.68;5.72;;;12.20;99.90;;;;;;5086333;28;20462;-57
2023/05/04 08:11:40;;;;;;;10.48;5.70;;;12.20;99.90;;;;;;5085693;28;20621;-56
2023/05/04 08:14:07;;;;;;;11.40;5.43;;;12.20;99.90;;;;;;5086794;28;20055;-57
2023/05/04 08:16:32;;;;;;;11.85;6.13;;;12.30;99.90;;;;;;5085979;28;20055;-56
2023/05/04 08:19:00;;;;;;;9.13;6.30;;;12.50;99.90;;;;;;5086322;28;20063;-57
2023/05/04 08:21:26;;;;;;;11.38;6.72;;;12.60;99.90;;;;;;5086586;28;20044;-58
2023/05/04 08:23:51;;;;;;;10.23;6.00;;;12.80;99.90;;;;;;5083205;28;20044;-58
2023/05/04 08:26:18;;;;;;;10.63;6.10;;;12.90;99.90;;;;;;5085034;28;20296;-57
2023/05/04 08:28:45;;;;;;;12.95;6.38;;;13.00;99.90;;;;;;5085564;28;20055;-56
2023/05/04 08:31:11;;;;;;;11.43;5.93;;;13.10;99.90;;;;;;5085908;28;20414;-57
2023/05/04 08:33:37;;;;;;;13.77;6.32;;;13.20;99.90;;;;;;5085814;28;20366;-58
2023/05/04 08:36:04;;;;;;;9.88;5.78;;;13.40;99.90;;;;;;5086150;28;20036;-56
2023/05/04 08:38:30;;;;;;;11.15;6.20;;;13.60;99.90;;;;;;5085286;28;20121;-59
2023/05/04 08:40:56;;;;;;;14.90;6.53;;;13.70;99.90;;;;;;5085538;28;20064;-62
2023/05/04 08:43:22;;;;;;;10.25;6.10;;;13.80;99.90;;;;;;5085511;28;20048;-58
2023/05/04 08:45:49;;;;;;;12.35;6.82;;;14.00;99.90;;;;;;5086004;28;20040;-55
2023/05/04 08:48:14;;;;;;;8.88;5.60;;;14.20;99.90;;;;;;5084170;28;20056;-55
2023/05/04 08:50:41;;;;;;;10.02;6.15;;;14.30;99.90;;;;;;5085501;28;20032;-59
2023/05/04 08:53:10;;;;;;;8.27;5.20;;;14.30;99.90;;;;;;5085686;28;20048;-58
2023/05/04 08:55:37;;;;;;;10.02;5.97;;;14.30;99.90;;;;;;5084918;28;20873;-57
2023/05/04 08:58:16;;;;;;;12.80;4.80;;;14.50;99.90;;;;;;5083647;28;20172;-56
2023/05/04 09:00:42;;;;;;;9.60;4.82;;;14.60;99.90;;;;;;5084637;28;20044;-56
2023/05/04 09:03:13;;;;;;;12.23;5.85;;;14.60;99.90;;;;;;5084064;28;20066;-59
2023/05/04 09:05:42;;;;;;;22.60;5.65;;;14.60;99.90;;;;;;5085856;28;20043;-59
2023/05/04 09:08:07;;;;;;;9.90;5.25;;;14.70;99.90;;;;;;5085279;28;20048;-57
2023/05/04 09:10:33;;;;;;;7.97;4.13;;;14.80;99.90;;;;;;5084580;28;20043;-56
2023/05/04 09:12:59;;;;;;;8.68;4.47;;;14.90;98.20;;;;;;5083577;28;20040;-57
2023/05/04 09:15:25;;;;;;;8.98;4.00;;;14.90;99.90;;;;;;5085082;28;20059;-58
2023/05/04 09:18:00;;;;;;;10.10;5.25;;;14.90;99.80;;;;;;5085037;28;20090;-58
2023/05/04 09:20:26;;;;;;;8.57;4.25;;;15.00;99.50;;;;;;5085125;28;20047;-58
2023/05/04 09:23:08;;;;;;;10.50;5.28;;;15.10;99.90;;;;;;5084414;28;20044;-58
2023/05/04 09:25:49;;;;;;;11.85;5.57;;;15.20;97.80;;;;;;5081459;28;20048;-58
2023/05/04 09:28:15;;;;;;;9.02;5.07;;;15.30;99.10;;;;;;5083158;28;20094;-58
2023/05/04 09:30:42;;;;;;;18.73;5.65;;;15.40;99.90;;;;;;5085095;28;20032;-58
2023/05/04 09:33:08;;;;;;;8.68;4.80;;;15.70;99.90;;;;;;5084283;28;20055;-59
2023/05/04 09:35:34;;;;;;;10.93;4.50;;;15.80;98.40;;;;;;5084850;28;20423;-58
2023/05/04 09:38:00;;;;;;;7.88;5.05;;;15.90;96.30;;;;;;5078717;28;20039;-58
2023/05/04 09:40:37;;;;;;;10.55;4.70;;;16.00;97.10;;;;;;5062648;28;20028;-58
2023/05/04 09:43:03;;;;;;;9.00;4.68;;;16.20;97.00;;;;;;5063402;28;20048;-58
2023/05/04 09:46:00;;;;;;;11.35;4.93;;;16.20;96.70;;;;;;5063996;28;20047;-59
2023/05/04 09:48:27;;;;;;;10.77;4.95;;;16.40;95.40;;;;;;5055090;28;20067;-58
2023/05/04 09:50:58;;;;;;;11.65;4.65;;;16.50;96.30;;;;;;5064206;28;20037;-60
2023/05/04 09:53:28;;;;;;;12.07;5.13;;;16.60;95.50;;;;;;5064644;28;20048;-58
2023/05/04 09:56:38;;;;;;;12.63;5.03;;;16.80;94.70;;;;;;5064206;28;20115;-58
2023/05/04 09:59:04;;;;;;;11.40;5.30;;;16.90;93.50;;;;;;5004702;28;20065;-58
2023/05/04 10:01:30;;;;;;;7.57;4.50;;;17.10;94.80;;;;;;5004942;28;20053;-58
2023/05/04 10:03:57;;;;;;;6.35;3.58;;;17.20;94.30;;;;;;5047142;28;20051;-58
2023/05/04 10:06:23;;;;;;;12.68;4.97;;;17.30;92.10;;;;;;5083790;28;20072;-58
2023/05/04 10:08:50;;;;;;;11.13;4.78;;;17.20;93.00;;;;;;5083348;28;20036;-59
2023/05/04 10:11:19;;;;;;;13.45;4.38;;;17.30;93.50;;;;;;5081901;28;20398;-58
2023/05/04 10:13:47;;;;;;;10.75;4.68;;;17.40;93.20;;;;;;5079628;28;20055;-57
2023/05/04 10:16:44;;;;;;;7.07;4.68;;;17.40;93.20;;;;;;5063299;28;20056;-58
2023/05/04 10:19:19;;;;;;;7.85;4.20;;;17.50;93.20;;;;;;5039100;28;20080;-59
2023/05/04 10:22:00;;;;;;;6.75;4.32;;;17.50;93.00;;;;;;5061258;28;20426;-58
2023/05/04 10:24:50;;;;;;;11.13;5.10;;;17.60;93.20;;;;;;5063685;28;20055;-57
2023/05/04 10:27:36;;;;;;;6.63;4.25;;;17.70;92.30;;;;;;5062374;28;20075;-58
2023/05/04 10:30:03;;;;;;;8.20;4.60;;;17.90;92.10;;;;;;5043315;28;20061;-57
2023/05/04 10:32:29;;;;;;;9.70;4.40;;;17.90;92.60;;;;;;5043153;28;20037;-58
2023/05/04 10:35:09;;;;;;;9.73;4.47;;;18.10;92.20;;;;;;5043320;28;20546;-59
2023/05/04 10:37:38;;;;;;;6.75;4.10;;;18.20;92.00;;;;;;5042275;28;20049;-60
2023/05/04 10:40:04;;;;;;;8.05;4.35;;;18.10;92.10;;;;;;5058652;28;20044;-58
2023/05/04 10:42:40;;;;;;;7.78;4.60;;;18.10;92.10;;;;;;5062556;28;20040;-58
2023/05/04 10:45:08;;;;;;;9.27;4.70;;;18.00;91.10;;;;;;5063359;28;20055;-62
2023/05/04 10:47:35;;;;;;;9.70;4.50;;;17.70;91.00;;;;;;5063163;28;20045;-60
2023/05/04 10:50:06;;;;;;;7.72;4.30;;;17.80;91.40;;;;;;5064019;28;20041;-62
2023/05/04 10:52:52;;;;;;;14.57;4.45;;;17.80;91.60;;;;;;5065818;28;20136;-62
2023/05/04 10:55:18;;;;;;;9.82;4.45;;;17.90;91.10;;;;;;5067442;28;20483;-61
2023/05/04 10:57:49;;;;;;;11.60;4.60;;;17.80;91.90;;;;;;5066806;28;20048;-60
2023/05/04 11:00:17;;;;;;;11.07;5.00;;;17.90;91.70;;;;;;5067495;28;20146;-61
2023/05/04 11:02:43;;;;;;;11.80;5.00;;;18.00;92.50;;;;;;5067793;28;20070;-61
2023/05/04 11:05:16;;;;;;;11.20;4.90;;;17.90;92.30;;;;;;5065719;28;20052;-63
2023/05/04 11:07:41;;;;;;;8.38;4.85;;;17.80;92.20;;;;;;5057165;28;20885;-60
2023/05/04 11:10:23;;;;;;;7.03;4.80;;;18.00;91.90;;;;;;5046823;28;20130;-61
2023/05/04 11:12:49;;;;;;;10.90;5.20;;;17.90;91.20;;;;;;5046492;28;20040;-61
2023/05/04 11:15:14;;;;;;;10.73;4.68;;;18.00;91.90;;;;;;5047029;28;20048;-61
2023/05/04 11:17:47;;;;;;;9.07;4.35;;;18.20;91.90;;;;;;5046204;28;20044;-61
2023/05/04 11:20:25;;;;;;;11.80;4.57;;;18.40;91.40;;;;;;5045624;28;20601;-62
2023/05/04 11:22:51;;;;;;;8.98;4.88;;;18.50;90.10;;;;;;5044487;28;20247;-59
2023/05/04 11:25:29;;;;;;;7.72;4.65;;;18.40;90.90;;;;;;5046483;28;20053;-60
2023/05/04 11:27:55;;;;;;;9.52;4.70;;;18.30;90.10;;;;;;5056533;28;20090;-61
2023/05/04 11:30:21;;;;;;;9.15;4.40;;;18.30;90.60;;;;;;5064696;28;20041;-62
2023/05/04 11:32:46;;;;;;;12.25;5.43;;;18.50;91.00;;;;;;5065429;28;20048;-62
2023/05/04 11:35:18;;;;;;;7.30;3.78;;;18.60;90.70;;;;;;5063239;28;20040;-60
2023/05/04 11:37:46;;;;;;;11.05;5.20;;;18.60;88.90;;;;;;5065907;28;20119;-61
2023/05/04 11:40:12;;;;;;;10.63;5.15;;;18.70;90.30;;;;;;5065145;28;20048;-59
2023/05/04 11:42:39;;;;;;;8.85;4.70;;;18.60;90.30;;;;;;5065260;28;20053;-61
2023/05/04 11:45:10;;;;;;;9.25;4.47;;;18.70;90.60;;;;;;5066399;28;20051;-61
2023/05/04 11:47:37;;;;;;;6.78;3.72;;;18.80;89.80;;;;;;5066440;28;20097;-61
2023/05/04 11:50:05;;;;;;;8.68;4.72;;;18.70;90.60;;;;;;5065803;28;20556;-59
2023/05/04 11:52:32;;;;;;;9.27;4.57;;;18.60;90.10;;;;;;5066414;28;20044;-59
2023/05/04 11:54:58;;;;;;;9.50;4.80;;;18.50;90.20;;;;;;5064788;28;20041;-63
2023/05/04 11:57:23;;;;;;;7.00;4.43;;;18.40;90.70;;;;;;5063765;28;20115;-65
2023/05/04 11:59:49;;;;;;;8.68;4.28;;;18.50;90.50;;;;;;5063013;28;20052;-64
2023/05/04 12:02:16;;;;;;;9.93;4.82;;;18.40;89.20;;;;;;5064005;28;20047;-60
2023/05/04 12:04:42;;;;;;;7.50;4.53;;;18.50;90.60;;;;;;5062628;28;20076;-66
2023/05/04 12:07:08;;;;;;;11.07;4.65;;;18.60;90.90;;;;;;5062671;28;20125;-64
2023/05/04 12:09:46;;;;;;;7.47;4.80;;;18.60;90.80;;;;;;5063766;28;20056;-67
2023/05/04 12:12:15;;;;;;;10.07;4.53;;;18.80;88.90;;;;;;5055375;28;20460;-63
2023/05/04 12:14:51;;;;;;;7.20;4.07;;;18.80;90.00;;;;;;5052993;28;20061;-67
2023/05/04 12:17:20;;;;;;;6.28;4.30;;;18.90;88.10;;;;;;5062112;28;20097;-63
2023/05/04 12:20:04;;;;;;;6.32;4.15;;;18.80;88.30;;;;;;5062741;28;20105;-66
2023/05/04 12:22:31;;;;;;;7.65;4.50;;;18.70;86.40;;;;;;5063294;28;20147;-61
2023/05/04 12:24:58;;;;;;;8.00;4.40;;;18.80;88.90;;;;;;5062110;28;20048;-56
2023/05/04 12:27:24;;;;;;;7.05;4.00;;;18.90;87.90;;;;;;5062698;28;20056;-62
2023/05/04 12:29:50;;;;;;;9.35;4.43;;;19.00;88.00;;;;;;5065668;28;20044;-59
2023/05/04 12:32:17;;;;;;;8.60;4.53;;;18.90;88.40;;;;;;5062939;28;20275;-61
2023/05/04 12:34:42;;;;;;;10.77;4.60;;;18.90;88.10;;;;;;5062268;28;20336;-61
2023/05/04 12:37:09;;;;;;;7.30;4.40;;;19.00;88.70;;;;;;5062754;28;20044;-62
2023/05/04 12:39:35;;;;;;;9.55;4.40;;;19.10;87.50;;;;;;5060403;28;20063;-64
2023/05/04 12:42:01;;;;;;;9.35;4.15;;;19.30;86.30;;;;;;5061698;28;20040;-56
2023/05/04 12:44:27;;;;;;;6.22;3.92;;;19.30;87.00;;;;;;5063038;28;20697;-61